NCAR-RAP Real-Time Weather Data

Output produced by METARs form (26 May 2022  08:38 UTC)
found at http://weather.rap.ucar.edu/surface/
 
KOMA 260752Z 35012KT 6SM -DZ BR OVC008 11/10 A2975 RMK AO2 DZB50 CIG 005V012 SLP074 P0000 T01060100 $
KOMA 260652Z 35012KT 6SM BR BKN007 OVC012 10/09 A2976 RMK AO2 RAE21 CIG 004V009 SLP078 P0001 T01000094 $
KOMA 260638Z 35012KT 6SM BR BKN005 OVC010 10/09 A2976 RMK AO2 RAE21 CIG 004V008 P0000 T01000094 $
KOMA 260625Z 34012KT 6SM BR FEW005 BKN010 OVC014 10/09 A2976 RMK AO2 RAE21 CIG 007V012 P0000 T01000094 $
KOMA 260552Z 35013KT 3SM -RA BR OVC009 10/09 A2976 RMK AO2 CIG 003V013 SLP079 P0002 60049 T01000094 10111 20100 401220100 58003 $
KOMA 260548Z 35013KT 3SM -RA BR BKN006 OVC012 10/09 A2976 RMK AO2 CIG 003V009 P0002 $
KOMA 260524Z 35014KT 2 1/2SM -RA BR BKN005 OVC011 10/09 A2977 RMK AO2 P0002 T01000094 $
KOMA 260517Z 35012KT 3SM -RA BR BKN008 OVC012 10/09 A2977 RMK AO2 CIG 004V010 P0001 T01000094 $
KOMA 260452Z 36012KT 3SM -RA BR FEW005 OVC010 10/09 A2977 RMK AO2 TWR VIS 4 SLP083 P0004 T01000094 $
KOMA 260449Z 35014KT 3SM -RA BR FEW005 OVC010 10/09 A2977 RMK AO2 TWR VIS 4 P0004 $
KOMA 260400Z 36012KT 5SM -RA BR SCT010 BKN013 OVC042 10/09 A2977 RMK AO2 P0001 T01000094 $
KOMA 260352Z 36011KT 5SM -RA BR SCT010 BKN020 OVC043 11/09 A2977 RMK AO2 SLP082 P0011 T01060094 $
KOMA 260330Z 02012KT 4SM -RA BR SCT010 BKN016 OVC021 11/09 A2978 RMK AO2 P0008 T01060094 $
KOMA 260252Z 01016G25KT 4SM -RA BR OVC014 11/09 A2975 RMK AO2 PK WND 36032/0157 SLP074 P0018 60032 T01060094 53018 $
KOMA 260152Z 36021G32KT 6SM -RA BR OVC014 11/09 A2969 RMK AO2 PK WND 36032/0125 SLP054 P0005 T01060094 $
KOMA 260112Z 35022G30KT 6SM -RA BR OVC013 11/09 A2968 RMK AO2 PK WND 36030/0110 P0000 T01110094 $
KOMA 260052Z 36018G28KT 6SM -RA BR FEW010 OVC015 11/09 A2969 RMK AO2 PK WND 36032/0017 SLP055 P0009 T01110094 $
KOMA 252352Z 36019G29KT 5SM R14R/5500VP6000FT -RA BR OVC015 11/10 A2969 RMK AO2 PK WND 01032/2328 SLP055 P0012 60055 T01110100 10122 20111 58010 $
KOMA 252252Z 36019G27KT 6SM -RA BR BKN013 OVC019 11/10 A2971 RMK AO2 PK WND 36031/2220 SLP059 P0009 T01110100 $
KOMA 252152Z 36021G30KT 4SM -RA BR SCT011 BKN019 OVC035 12/11 A2972 RMK AO2 PK WND 01030/2151 SLP065 P0016 T01170106
KOMA 252147Z 35019G27KT 6SM RA BR SCT014 BKN019 OVC035 12/11 A2972 RMK AO2 PK WND 35027/2132 P0015
KOMA 252052Z 35018G27KT 3SM RA BR BKN012 OVC019 12/11 A2974 RMK AO2 PK WND 01027/2047 PRESFR SLP069 P0008 60018 T01170106 56022
KOMA 251952Z 36015G23KT 4SM RA BR BKN011 OVC018 12/11 A2976 RMK AO2 SLP077 P0005 T01220106
KOMA 251852Z 36015KT 5SM -RA BR BKN013 OVC019 12/11 A2978 RMK AO2 SLP083 P0005 T01170106
KOMA 251752Z 36016KT 6SM -RA BR OVC012 12/10 A2980 RMK AO2 SLP092 P0003 60005 T01170100 10122 20111 56007
KOMA 251711Z 01014KT 4SM -RA BR OVC010 12/11 A2980 RMK AO2 CIG 008V014 P0001 T01220106
KOMA 251652Z 01014KT 4SM -RA BR OVC009 12/10 A2982 RMK AO2 RAB20 CIG 008V012 SLP096 P0002 T01220100
KOMA 251552Z 02014KT 7SM OVC008 12/09 A2981 RMK AO2 DZE26 SLP095 P0000 T01170094
KOMA 251452Z 02014KT 5SM -DZ BR OVC007 12/09 A2982 RMK AO2 CIG 006V010 SLP100 P0000 60000 T01170094 58006
KOMA 251426Z 02012G20KT 3SM -DZ BR OVC007 11/10 A2983 RMK AO2 P0000 T01110100
KOMA 251352Z 02011KT 2 1/2SM -DZ BR OVC007 11/09 A2984 RMK AO2 DZB47 SLP104 P0000 T01110094
KOMA 251252Z 01011KT 5SM BR OVC008 11/09 A2984 RMK AO2 SLP105 T01110094
KOMA 251152Z 01009KT 6SM BR OVC008 11/09 A2984 RMK AO2 DZE43 SLP106 P0000 60002 70079 T01110094 10117 20111 53003
KOMA 251118Z 01007KT 4SM -DZ BR OVC008 11/09 A2983 RMK AO2 P0000 T01110094
KOMA 251101Z 01008KT 2 1/2SM -DZ BR OVC008 11/09 A2981 RMK AO2 P0000 T01110094
KOMA 251052Z 02007KT 3SM -DZ BR OVC008 11/09 A2982 RMK AO2 SLP097 P0000 T01110094
KOMA 250952Z 02008KT 7SM -DZ OVC008 11/09 A2981 RMK AO2 DZB50 SLP095 P0000 T01110094
KOMA 250852Z 34004KT 7SM OVC008 12/09 A2983 RMK AO2 RAE0757DZB0759E21 SLP102 P0000 60002 T01170094 55011
KOMA 250752Z 07013G20KT 2 1/2SM -RA BR OVC008 12/09 A2983 RMK AO2 CIG 007V013 SLP099 P0001 T01170094
KOMA 250652Z 00000KT 2 1/2SM -RA BR OVC009 12/10 A2986 RMK AO2 SLP111 P0001 T01170100
KOMA 250552Z 06010G20KT 3SM -RA BR OVC009 12/10 A2987 RMK AO2 CIG 007V011 SLP114 P0002 60032 T01170100 10117 20106 401610106 58022
KOMA 250524Z 06013G20KT 3SM -RA BR OVC010 12/09 A2988 RMK AO2 CIG 007V013 P0001 T01170094
KOMA 250505Z 05010G18KT 2 1/2SM -RA BR OVC010 12/09 A2989 RMK AO2 CIG 008V012 P0000 T01170094
KOMA 250452Z 06012G21KT 9SM -RA OVC011 12/09 A2990 RMK AO2 RAE06B52 SLP124 P0000 T01170094
KOMA 250423Z 05009G25KT 10SM OVC010 12/09 A2992 RMK AO2 RAE06 P0000 T01170094
KOMA 250352Z 03012G18KT 7SM -RA OVC009 11/09 A2993 RMK AO2 CIG 008V012 SLP135 P0001 T01110094
KOMA 250252Z 03012G19KT 7SM -RA BKN011 OVC016 11/09 A2993 RMK AO2 CIG 008V013 SLP135 P0007 60029 T01060089 58011
KOMA 250237Z 03011G20KT 8SM -RA BKN010 OVC016 11/09 A2994 RMK AO2 P0007 T01060089
KOMA 250222Z 03013KT 5SM RA BR OVC009 11/09 A2994 RMK AO2 CIG 007V016 P0005 T01060089
KOMA 250152Z 04013G21KT 7SM -RA BKN011 OVC016 11/09 A2996 RMK AO2 PK WND 04026/0134 SLP145 P0008 T01060089
KOMA 250052Z 02014G21KT 4SM RA BR BKN011 BKN015 OVC034 11/09 A2995 RMK AO2 SLP143 P0014 T01060089
KOMA 242352Z 03009KT 4SM RA BR BKN011 BKN016 OVC020 11/09 A2997 RMK AO2 SLP148 P0014 60042 T01110094 10128 20111 56012
KOMA 242252Z 05011KT 4SM -RA BKN013 OVC022 12/09 A2998 RMK AO2 SLP154 P0004 T01170089
KOMA 242152Z 03007G20KT 4SM -RA BR BKN013 OVC021 12/09 A2998 RMK AO2 SLP152 P0008 T01170094
KOMA 242145Z 04009G16KT 4SM RA BR BKN013 OVC019 12/09 A2998 RMK AO2 P0008 T01170094
KOMA 242109Z 05010G18KT 4SM -RA BR BKN016 BKN024 OVC046 12/09 A2999 RMK AO2 P0002 T01170094
KOMA 242052Z 05011G18KT 4SM RA SCT016 OVC046 12/09 A3000 RMK AO2 SLP159 P0007 60016 T01170089 56025
KOMA 241952Z 08013G23KT 5SM -RA SCT018 OVC046 12/09 A3003 RMK AO2 SLP167 P0004 T01220094
KOMA 241852Z 05007KT 7SM -RA FEW022 BKN070 OVC085 13/09 A3004 RMK AO2 SLP173 P0005 T01280094
KOMA 241752Z 10008KT 6SM -RA OVC055 13/10 A3008 RMK AO2 SLP185 P0003 60003 T01280100 10161 20128 56000
KOMA 241652Z 12008KT 10SM -RA BKN055 OVC070 15/08 A3008 RMK AO2 SLP184 P0000 T01500083
KOMA 241552Z 11011KT 10SM -RA OVC090 16/07 A3007 RMK AO2 RAB27 SLP182 P0000 T01610067
KOMA 241452Z 10014G21KT 10SM OVC100 16/05 A3008 RMK AO2 SLP183 T01610050 56007
KOMA 241352Z 10008KT 10SM SCT085 BKN110 OVC250 15/05 A3009 RMK AO2 SLP186 T01500050
KOMA 241252Z 10008KT 10SM OVC090 14/04 A3009 RMK AO2 SLP187 T01390039
KOMA 241152Z 00000KT 10SM OVC100 13/03 A3010 RMK AO2 SLP192 T01330028 10144 20128 55002
KOMA 241052Z 09003KT 10SM OVC100 13/02 A3009 RMK AO2 SLP188 T01330022
KOMA 240952Z 10008KT 10SM BKN065 OVC090 13/02 A3010 RMK AO2 SLP192 T01330017
KOMA 240852Z 10010KT 10SM OVC090 13/02 A3011 RMK AO2 SLP193 T01330017 56012